createdAt,value
2023-10-26T00:01:26.426Z,98817.69
2023-10-26T00:03:53.712Z,98812.59
2023-10-26T00:06:21.294Z,98819.69
2023-10-26T00:08:48.621Z,98793.66
2023-10-26T00:11:15.904Z,98789.22
2023-10-26T00:13:43.066Z,98804.84
2023-10-26T00:16:10.187Z,98804.13
2023-10-26T00:18:37.188Z,98790.91
2023-10-26T00:21:04.525Z,98780.78
2023-10-26T00:23:31.844Z,98780.66
2023-10-26T00:25:58.855Z,98779.88
2023-10-26T00:28:26.145Z,98784.38
2023-10-26T00:30:53.063Z,98755.97
2023-10-26T00:33:20.076Z,98771.34
2023-10-26T00:35:47.538Z,98754.38
2023-10-26T00:38:14.738Z,98764.47
2023-10-26T00:40:42.010Z,98746.41
2023-10-26T00:43:21.411Z,98762.88
2023-10-26T00:45:52.524Z,98761.25
2023-10-26T00:48:21.093Z,98760.63
2023-10-26T00:50:49.775Z,98755.66
2023-10-26T00:53:19.024Z,98755.91
2023-10-26T00:55:50.542Z,98759.16
2023-10-26T00:58:19.407Z,98756.75
2023-10-26T01:00:46.500Z,98744.78
2023-10-26T01:03:14.888Z,98758.72
2023-10-26T01:05:42.450Z,98754.41
2023-10-26T01:08:09.593Z,98742.13
2023-10-26T01:10:36.847Z,98739.03
2023-10-26T01:13:05.639Z,98709.78
2023-10-26T01:15:32.601Z,98732.00
2023-10-26T01:18:00.053Z,98739.97
2023-10-26T01:20:27.159Z,98741.06
2023-10-26T01:22:54.487Z,98725.91
2023-10-26T01:25:21.736Z,98743.37
2023-10-26T01:27:49.107Z,98743.72
2023-10-26T01:30:18.296Z,98740.38
2023-10-26T01:32:45.630Z,98738.00
2023-10-26T01:35:12.628Z,98734.66
2023-10-26T01:37:40.504Z,98740.16
2023-10-26T01:40:09.666Z,98731.44
2023-10-26T01:42:36.689Z,98722.09
2023-10-26T01:45:04.049Z,98728.97
2023-10-26T01:47:30.961Z,98682.81
2023-10-26T01:49:58.218Z,98734.66
2023-10-26T01:52:25.563Z,98733.94
2023-10-26T01:54:52.517Z,98721.13
2023-10-26T01:57:19.666Z,98740.28
2023-10-26T01:59:46.894Z,98719.53
2023-10-26T02:02:14.037Z,98691.78
2023-10-26T02:04:41.225Z,98728.22
2023-10-26T02:07:08.243Z,98729.31
2023-10-26T02:09:35.480Z,98722.19
2023-10-26T02:12:02.785Z,98725.94
2023-10-26T02:14:29.820Z,98727.72
2023-10-26T02:16:57.037Z,98726.66
2023-10-26T02:19:24.018Z,98683.69
2023-10-26T02:21:51.166Z,98726.00
2023-10-26T02:24:18.339Z,98727.78
2023-10-26T02:26:45.490Z,98706.31
2023-10-26T02:29:12.810Z,98732.34
2023-10-26T02:31:40.080Z,98690.63
2023-10-26T02:34:07.031Z,98725.88
2023-10-26T02:36:34.259Z,98711.78
2023-10-26T02:39:01.420Z,98711.78
2023-10-26T02:41:28.332Z,98717.31
2023-10-26T02:43:55.532Z,98721.88
2023-10-26T02:46:24.655Z,98719.22
2023-10-26T02:48:51.624Z,98710.06
2023-10-26T02:51:18.818Z,98723.28
2023-10-26T02:53:46.076Z,98699.84
2023-10-26T02:56:13.069Z,98721.44
2023-10-26T02:58:40.268Z,98723.47
2023-10-26T03:01:07.658Z,98722.72
2023-10-26T03:03:34.718Z,98723.66
2023-10-26T03:06:02.355Z,98721.13
2023-10-26T03:08:29.619Z,98714.16
2023-10-26T03:10:56.778Z,98711.91
2023-10-26T03:13:23.862Z,98698.31
2023-10-26T03:15:51.222Z,98686.69
2023-10-26T03:18:18.446Z,98716.50
2023-10-26T03:20:45.355Z,98706.94
2023-10-26T03:23:12.927Z,98682.56
2023-10-26T03:25:39.918Z,98710.19
2023-10-26T03:28:06.879Z,98711.09
2023-10-26T03:30:34.761Z,98711.38
2023-10-26T03:33:02.184Z,98698.47
2023-10-26T03:35:29.871Z,98711.69
2023-10-26T03:37:57.181Z,98669.59
2023-10-26T03:40:24.348Z,98707.50
2023-10-26T03:42:51.621Z,98695.47
2023-10-26T03:45:18.749Z,98718.84
2023-10-26T03:47:45.775Z,98712.97
2023-10-26T03:50:13.615Z,98687.28
2023-10-26T03:52:40.543Z,98716.31
2023-10-26T03:55:08.140Z,98722.22
2023-10-26T03:57:35.129Z,98727.13
2023-10-26T04:00:04.398Z,98722.13
2023-10-26T04:02:31.737Z,98722.31
2023-10-26T04:04:59.065Z,98724.16
2023-10-26T04:07:26.306Z,98718.19
2023-10-26T04:09:53.575Z,98717.97
2023-10-26T04:12:20.772Z,98713.41
2023-10-26T04:14:48.229Z,98717.38
2023-10-26T04:17:16.871Z,98693.81
2023-10-26T04:19:44.191Z,98715.47
2023-10-26T04:22:11.085Z,98699.03
2023-10-26T04:24:38.592Z,98720.37
2023-10-26T04:27:05.975Z,98699.31
2023-10-26T04:29:33.038Z,98724.47
2023-10-26T04:32:00.132Z,98726.94
2023-10-26T04:34:29.563Z,98721.81
2023-10-26T04:36:57.021Z,98721.81
2023-10-26T04:39:23.995Z,98710.28
2023-10-26T04:41:51.547Z,98724.16
2023-10-26T04:44:19.929Z,98721.53
2023-10-26T04:46:47.108Z,98702.91
2023-10-26T04:49:14.076Z,98700.94
2023-10-26T04:51:41.288Z,98713.37
2023-10-26T04:54:08.523Z,98695.41
2023-10-26T04:56:35.635Z,98667.09
2023-10-26T04:59:03.152Z,98701.47
2023-10-26T05:01:30.408Z,98680.13
2023-10-26T05:03:57.884Z,98709.78
2023-10-26T05:06:25.204Z,98715.59
2023-10-26T05:08:52.645Z,98688.34
2023-10-26T05:11:20.668Z,98711.50
2023-10-26T05:13:49.330Z,98713.06
2023-10-26T05:16:16.398Z,98701.84
2023-10-26T05:18:43.671Z,98710.38
2023-10-26T05:21:10.933Z,98710.38
2023-10-26T05:23:40.951Z,98712.34
2023-10-26T05:26:08.249Z,98705.56
2023-10-26T05:28:35.397Z,98723.28
2023-10-26T05:31:02.362Z,98708.69
2023-10-26T05:33:29.603Z,98709.50
2023-10-26T05:35:57.746Z,98712.28
2023-10-26T05:38:25.203Z,98721.22
2023-10-26T05:40:58.453Z,98730.91
2023-10-26T05:43:25.758Z,98714.47
2023-10-26T05:45:53.891Z,98717.84
2023-10-26T05:48:21.031Z,98741.88
2023-10-26T05:50:48.066Z,98744.34
2023-10-26T05:53:15.298Z,98754.00
2023-10-26T05:55:42.415Z,98750.41
2023-10-26T05:58:12.255Z,98754.72
2023-10-26T06:00:39.901Z,98763.47
2023-10-26T06:03:07.566Z,98753.44
2023-10-26T06:05:35.034Z,98780.41
2023-10-26T06:08:01.994Z,98781.31
2023-10-26T06:10:29.020Z,98782.25
2023-10-26T06:12:56.138Z,98793.72
2023-10-26T06:15:24.145Z,98781.59
2023-10-26T06:17:52.030Z,98789.13
2023-10-26T06:20:19.305Z,98790.66
2023-10-26T06:22:46.415Z,98778.84
2023-10-26T06:25:13.676Z,98777.56
2023-10-26T06:27:40.852Z,98772.03
2023-10-26T06:30:08.700Z,98772.69
2023-10-26T06:32:36.814Z,98777.91
2023-10-26T06:35:05.355Z,98777.84
2023-10-26T06:37:32.297Z,98788.25
2023-10-26T06:39:59.275Z,98779.72
2023-10-26T06:42:26.439Z,98803.16
2023-10-26T06:44:53.693Z,98805.63
2023-10-26T06:47:20.925Z,98802.78
2023-10-26T06:49:48.505Z,98795.72
2023-10-26T06:52:15.938Z,98795.28
2023-10-26T06:54:43.676Z,98784.88
2023-10-26T06:57:11.167Z,98799.97
2023-10-26T06:59:38.219Z,98807.81
2023-10-26T07:02:09.427Z,98804.00
2023-10-26T07:04:39.516Z,98802.13
2023-10-26T07:07:06.975Z,98795.44
2023-10-26T07:09:33.936Z,98800.28
2023-10-26T07:12:01.099Z,98800.84
2023-10-26T07:14:28.389Z,98813.03
2023-10-26T07:16:57.125Z,98808.66
2023-10-26T07:19:24.291Z,98795.44
2023-10-26T07:21:51.503Z,98814.22
2023-10-26T07:24:18.766Z,98800.22
2023-10-26T07:26:46.332Z,98822.28
2023-10-26T07:29:13.627Z,98835.25
2023-10-26T07:31:41.020Z,98825.09
2023-10-26T07:34:08.376Z,98844.72
2023-10-26T07:36:35.709Z,98833.31
2023-10-26T07:39:44.382Z,98820.63
2023-10-26T07:44:38.891Z,98815.53
2023-10-26T07:47:12.864Z,98824.78
2023-10-26T07:49:46.229Z,98817.16
2023-10-26T07:52:13.418Z,98818.16
2023-10-26T07:54:40.608Z,98823.59
2023-10-26T07:57:07.981Z,98823.22
2023-10-26T07:59:34.948Z,98839.91
2023-10-26T08:02:02.813Z,98827.87
2023-10-26T08:04:33.764Z,98794.19
2023-10-26T08:07:01.842Z,98824.28
2023-10-26T08:09:35.326Z,98829.78
2023-10-26T08:12:02.637Z,98812.69
2023-10-26T08:16:29.494Z,98836.72
2023-10-26T08:17:18.814Z,98848.31
2023-10-26T08:19:46.124Z,98829.69
2023-10-26T08:22:13.883Z,98825.47
2023-10-26T08:24:41.057Z,98849.69
2023-10-26T08:27:08.537Z,98834.22
2023-10-26T08:29:35.737Z,98841.56
2023-10-26T08:32:04.961Z,98823.22
2023-10-26T08:34:32.775Z,98849.72
2023-10-26T08:37:13.096Z,98846.56
2023-10-26T08:39:41.719Z,98857.63
2023-10-26T08:42:10.009Z,98838.97
2023-10-26T08:44:39.000Z,98853.31
2023-10-26T08:47:07.168Z,98847.72
2023-10-26T08:49:34.333Z,98852.28
2023-10-26T08:52:01.610Z,98855.13
2023-10-26T08:54:29.091Z,98830.97
2023-10-26T08:56:56.544Z,98849.16
2023-10-26T08:59:26.447Z,98856.56
2023-10-26T09:01:54.143Z,98849.72
2023-10-26T09:04:21.693Z,98835.87
2023-10-26T09:06:50.367Z,98824.94
2023-10-26T09:09:19.881Z,98849.84
2023-10-26T09:11:49.354Z,98847.25
2023-10-26T09:14:17.609Z,98849.38
2023-10-26T09:16:46.736Z,98847.69
2023-10-26T09:19:16.336Z,98847.22
2023-10-26T09:21:57.700Z,98851.72
2023-10-26T09:24:30.528Z,98855.66
2023-10-26T09:27:00.620Z,98860.31
2023-10-26T09:29:41.957Z,98860.19
2023-10-26T09:32:10.851Z,98843.78
2023-10-26T09:34:46.636Z,98861.47
2023-10-26T09:37:13.900Z,98876.81
2023-10-26T09:39:43.057Z,98858.84
2023-10-26T09:42:13.517Z,98870.03
2023-10-26T09:44:40.626Z,98872.91
2023-10-26T09:47:08.319Z,98862.06
2023-10-26T09:49:35.838Z,98855.19
2023-10-26T09:52:03.504Z,98868.13
2023-10-26T09:54:38.377Z,98867.66
2023-10-26T09:57:14.467Z,98864.66
2023-10-26T09:59:42.961Z,98866.81
2023-10-26T10:02:17.568Z,98851.44
2023-10-26T10:04:45.844Z,98849.50
2023-10-26T10:07:41.977Z,98854.88
2023-10-26T10:10:12.405Z,98851.44
2023-10-26T10:12:40.774Z,98842.69
2023-10-26T10:15:36.122Z,98845.31
2023-10-26T10:17:59.864Z,98847.09
2023-10-26T10:20:29.142Z,98844.75
2023-10-26T10:23:00.037Z,98851.06
2023-10-26T10:25:50.408Z,98842.44
2023-10-26T10:28:19.777Z,98848.78
2023-10-26T10:30:59.310Z,98848.78
2023-10-26T10:33:28.981Z,98826.81
2023-10-26T10:36:04.265Z,98825.75
2023-10-26T10:38:32.621Z,98844.88
2023-10-26T10:41:11.623Z,98846.97
2023-10-26T10:43:42.024Z,98831.22
2023-10-26T10:46:12.029Z,98848.97
2023-10-26T10:48:57.067Z,98845.69
2023-10-26T10:51:38.097Z,98834.22
2023-10-26T10:54:20.293Z,98829.13
2023-10-26T10:56:54.416Z,98829.50
2023-10-26T10:59:31.713Z,98832.28
2023-10-26T11:02:08.621Z,98821.09
2023-10-26T11:04:41.919Z,98830.34
2023-10-26T11:07:18.432Z,98823.53
2023-10-26T11:09:47.534Z,98817.63
2023-10-26T11:12:14.677Z,98811.09
2023-10-26T11:14:51.092Z,98817.63
2023-10-26T11:17:19.325Z,98807.06
2023-10-26T11:19:46.742Z,98801.59
2023-10-26T11:22:17.695Z,98803.84
2023-10-26T11:24:46.499Z,98800.66
2023-10-26T11:27:15.712Z,98796.66
2023-10-26T11:29:44.602Z,98792.00
2023-10-26T11:32:22.699Z,98795.25
2023-10-26T11:35:07.496Z,98787.41
2023-10-26T11:37:41.792Z,98791.06
2023-10-26T11:40:11.533Z,98793.12
2023-10-26T11:43:02.414Z,98801.62
2023-10-26T11:45:30.951Z,98793.12
2023-10-26T11:48:00.482Z,98808.31
2023-10-26T11:50:29.727Z,98800.06
2023-10-26T11:52:58.899Z,98806.28
2023-10-26T11:55:27.632Z,98788.16
2023-10-26T11:57:58.401Z,98781.53
2023-10-26T12:00:27.595Z,98786.03
2023-10-26T12:02:59.331Z,98791.81
2023-10-26T12:05:27.618Z,98794.41
2023-10-26T12:07:55.957Z,98787.44
2023-10-26T12:10:24.848Z,98791.00
2023-10-26T12:12:54.288Z,98796.34
2023-10-26T12:15:22.637Z,98795.00
2023-10-26T12:17:50.153Z,98778.94
2023-10-26T12:20:18.092Z,98787.38
2023-10-26T12:22:46.026Z,98790.88
2023-10-26T12:25:13.719Z,98799.19
2023-10-26T12:28:20.132Z,98789.47
2023-10-26T12:30:28.352Z,98805.37
2023-10-26T12:32:55.625Z,98804.75
2023-10-26T12:35:24.706Z,98807.91
2023-10-26T12:37:52.666Z,98806.69
2023-10-26T12:40:21.713Z,98793.16
2023-10-26T12:42:49.206Z,98796.47
2023-10-26T12:45:18.952Z,98794.75
2023-10-26T12:47:46.496Z,98789.87
2023-10-26T12:50:13.711Z,98786.75
2023-10-26T12:52:41.028Z,98784.50
2023-10-26T12:55:08.595Z,98796.72
2023-10-26T12:57:35.787Z,98776.88
2023-10-26T13:00:04.353Z,98786.72
2023-10-26T13:02:31.726Z,98792.69
2023-10-26T13:04:58.666Z,98782.84
2023-10-26T13:07:28.317Z,98788.84
2023-10-26T13:09:55.246Z,98770.78
2023-10-26T13:12:22.246Z,98785.00
2023-10-26T13:14:51.204Z,98787.66
2023-10-26T13:17:27.493Z,98767.81
2023-10-26T13:19:54.525Z,98784.00
2023-10-26T13:22:21.433Z,98784.59
2023-10-26T13:24:48.640Z,98787.38
2023-10-26T13:27:15.737Z,98790.41
2023-10-26T13:29:42.879Z,98785.09
2023-10-26T13:32:10.256Z,98787.94
2023-10-26T13:34:37.539Z,98782.94
2023-10-26T13:37:04.567Z,98753.47
2023-10-26T13:39:31.565Z,98772.34
2023-10-26T13:41:58.649Z,98777.72
2023-10-26T13:44:25.625Z,98774.78
2023-10-26T13:46:52.803Z,98766.28
2023-10-26T13:49:20.138Z,98761.22
2023-10-26T13:51:47.371Z,98758.72
2023-10-26T13:54:14.349Z,98774.91
2023-10-26T13:56:41.448Z,98775.44
2023-10-26T13:59:08.637Z,98776.97
2023-10-26T14:01:35.869Z,98748.66
2023-10-26T14:04:02.894Z,98783.38
2023-10-26T14:06:30.658Z,98777.00
2023-10-26T14:08:59.530Z,98750.75
2023-10-26T14:11:28.080Z,98767.72
2023-10-26T14:13:56.215Z,98739.00
2023-10-26T14:16:24.445Z,98766.09
2023-10-26T14:18:51.504Z,98776.50
2023-10-26T14:21:18.451Z,98775.91
2023-10-26T14:23:45.370Z,98774.91
2023-10-26T14:26:13.170Z,98778.47
2023-10-26T14:28:40.714Z,98770.03
2023-10-26T14:31:07.725Z,98777.12
2023-10-26T14:33:34.812Z,98769.25
2023-10-26T14:36:02.146Z,98761.88
2023-10-26T14:38:29.399Z,98752.25
2023-10-26T14:40:58.917Z,98763.31
2023-10-26T14:43:26.541Z,98755.16
2023-10-26T14:45:53.469Z,98741.47
2023-10-26T14:48:21.214Z,98763.78
2023-10-26T14:50:48.522Z,98763.78
2023-10-26T14:53:16.038Z,98752.91
2023-10-26T14:55:43.061Z,98744.66
2023-10-26T14:58:10.673Z,98724.06
2023-10-26T15:00:39.732Z,98763.91
2023-10-26T15:03:07.324Z,98745.16
2023-10-26T15:05:35.693Z,98753.09
2023-10-26T15:08:03.678Z,98757.19
2023-10-26T15:10:36.561Z,98754.28
2023-10-26T15:13:05.755Z,98731.41
2023-10-26T15:15:33.173Z,98744.16
2023-10-26T15:18:00.483Z,98767.69
2023-10-26T15:20:27.645Z,98749.16
2023-10-26T15:22:54.736Z,98769.69
2023-10-26T15:25:22.096Z,98764.44
2023-10-26T15:27:49.395Z,98748.69
2023-10-26T15:30:19.005Z,98777.19
2023-10-26T15:32:48.548Z,98777.06
2023-10-26T15:35:15.957Z,98779.13
2023-10-26T15:37:42.913Z,98765.72
2023-10-26T15:40:12.990Z,98774.41
2023-10-26T15:42:40.008Z,98775.41
2023-10-26T15:45:07.587Z,98777.22
2023-10-26T15:47:34.812Z,98751.94
2023-10-26T15:50:01.849Z,98784.69
2023-10-26T15:52:36.390Z,98784.03
2023-10-26T15:55:03.956Z,98785.94
2023-10-26T15:57:33.887Z,98796.66
2023-10-26T16:00:01.860Z,98799.81
2023-10-26T16:02:28.881Z,98806.66
2023-10-26T16:04:56.298Z,98797.50
2023-10-26T16:07:23.557Z,98801.16
2023-10-26T16:09:50.719Z,98782.63
2023-10-26T16:12:18.743Z,98780.91
2023-10-26T16:14:46.190Z,98764.44
2023-10-26T16:17:13.392Z,98792.97
2023-10-26T16:19:40.595Z,98786.31
2023-10-26T16:22:09.403Z,98791.66
2023-10-26T16:24:38.152Z,98776.41
2023-10-26T16:27:05.522Z,98783.75
2023-10-26T16:29:32.484Z,98784.78
2023-10-26T16:31:59.559Z,98791.84
2023-10-26T16:34:26.555Z,98748.66
2023-10-26T16:36:54.152Z,98765.72
2023-10-26T16:39:21.640Z,98782.00
2023-10-26T16:41:49.005Z,98789.94
2023-10-26T16:44:17.208Z,98781.16
2023-10-26T16:46:44.697Z,98784.00
2023-10-26T16:49:12.014Z,98779.81
2023-10-26T16:51:39.590Z,98773.72
2023-10-26T16:54:07.172Z,98773.44
2023-10-26T16:56:34.674Z,98756.19
2023-10-26T16:59:01.973Z,98771.16
2023-10-26T17:01:30.120Z,98771.31
2023-10-26T17:03:59.504Z,98770.28
2023-10-26T17:06:28.822Z,98769.62
2023-10-26T17:08:56.014Z,98770.88
2023-10-26T17:11:23.832Z,98766.69
2023-10-26T17:13:51.450Z,98764.19
2023-10-26T17:16:19.671Z,98753.22
2023-10-26T17:18:47.809Z,98751.72
2023-10-26T17:21:15.596Z,98753.81
2023-10-26T17:23:43.192Z,98755.22
2023-10-26T17:26:14.299Z,98754.38
2023-10-26T17:28:42.268Z,98721.66
2023-10-26T17:31:10.000Z,98757.88
2023-10-26T17:33:38.801Z,98750.00
2023-10-26T17:36:07.128Z,98740.06
2023-10-26T17:38:35.121Z,98739.12
2023-10-26T17:41:17.440Z,98728.66
2023-10-26T17:43:45.841Z,98742.53
2023-10-26T17:46:17.313Z,98740.84
2023-10-26T17:48:45.872Z,98745.41
2023-10-26T17:51:13.677Z,98745.03
2023-10-26T17:53:43.186Z,98730.88
2023-10-26T17:56:13.786Z,98736.28
2023-10-26T17:58:42.804Z,98734.69
2023-10-26T18:01:12.583Z,98736.47
2023-10-26T18:03:43.163Z,98730.66
2023-10-26T18:06:10.772Z,98736.19
2023-10-26T18:08:41.537Z,98732.84
2023-10-26T18:11:10.122Z,98726.25
2023-10-26T18:13:39.395Z,98697.59
2023-10-26T18:16:09.568Z,98712.37
2023-10-26T18:18:41.362Z,98719.81
2023-10-26T18:21:10.158Z,98718.03
2023-10-26T18:23:41.741Z,98719.25
2023-10-26T18:26:11.827Z,98710.41
2023-10-26T18:28:42.151Z,98706.03
2023-10-26T18:31:15.363Z,98709.94
2023-10-26T18:33:50.808Z,98693.41
2023-10-26T18:36:21.703Z,98717.72
2023-10-26T18:38:50.198Z,98721.59
2023-10-26T18:41:23.602Z,98709.31
2023-10-26T18:43:54.965Z,98716.75
2023-10-26T18:46:23.674Z,98718.94
2023-10-26T18:48:51.664Z,98724.72
2023-10-26T18:51:20.103Z,98713.47
2023-10-26T18:53:47.343Z,98745.78
2023-10-26T18:56:26.282Z,98755.75
2023-10-26T18:58:54.387Z,98758.22
2023-10-26T19:01:27.334Z,98750.16
2023-10-26T19:06:27.257Z,98738.53
2023-10-26T19:08:55.095Z,98731.94
2023-10-26T19:11:22.790Z,98727.94
2023-10-26T19:13:51.363Z,98724.25
2023-10-26T19:16:20.007Z,98713.34
2023-10-26T19:18:47.716Z,98696.84
2023-10-26T19:21:15.963Z,98711.53
2023-10-26T19:23:46.488Z,98717.72
2023-10-26T19:26:16.118Z,98716.56
2023-10-26T19:28:44.492Z,98714.63
2023-10-26T19:31:14.250Z,98699.31
2023-10-26T19:33:43.846Z,98709.62
2023-10-26T19:36:12.588Z,98696.50
2023-10-26T19:38:41.359Z,98711.09
2023-10-26T19:41:16.085Z,98707.81
2023-10-26T19:43:44.283Z,98684.22
2023-10-26T19:46:13.266Z,98698.81
2023-10-26T19:48:44.288Z,98686.69
2023-10-26T19:51:15.762Z,98682.75
2023-10-26T19:53:46.658Z,98681.06
2023-10-26T19:56:16.527Z,98676.75
2023-10-26T19:58:46.003Z,98676.75
2023-10-26T20:01:16.917Z,98676.91
2023-10-26T20:03:44.754Z,98670.31
2023-10-26T20:06:12.859Z,98687.63
2023-10-26T20:08:41.040Z,98685.03
2023-10-26T20:11:12.320Z,98671.41
2023-10-26T20:13:42.200Z,98668.97
2023-10-26T20:16:10.022Z,98675.25
2023-10-26T20:18:41.899Z,98678.84
2023-10-26T20:21:10.977Z,98679.78
2023-10-26T20:23:38.718Z,98676.75
2023-10-26T20:26:06.317Z,98679.66
2023-10-26T20:28:33.956Z,98674.41
2023-10-26T20:31:01.649Z,98648.75
2023-10-26T20:33:28.987Z,98649.75
2023-10-26T20:35:56.786Z,98661.38
2023-10-26T20:38:24.550Z,98635.00
2023-10-26T20:40:52.112Z,98653.81
2023-10-26T20:43:19.949Z,98656.62
2023-10-26T20:45:47.704Z,98652.41
2023-10-26T20:48:15.374Z,98639.44
2023-10-26T20:50:42.691Z,98644.75
2023-10-26T20:53:09.686Z,98617.28
2023-10-26T20:55:36.876Z,98632.91
2023-10-26T20:58:04.428Z,98618.44
2023-10-26T21:00:31.686Z,98627.38
2023-10-26T21:02:58.916Z,98614.53
2023-10-26T21:05:26.102Z,98617.50
2023-10-26T21:07:53.587Z,98620.00
2023-10-26T21:10:20.612Z,98628.22
2023-10-26T21:12:47.688Z,98616.41
2023-10-26T21:15:14.872Z,98617.34
2023-10-26T21:17:42.283Z,98626.47
2023-10-26T21:20:10.040Z,98638.75
2023-10-26T21:22:37.536Z,98627.56
2023-10-26T21:25:05.937Z,98622.41
2023-10-26T21:27:33.221Z,98628.63
2023-10-26T21:30:00.426Z,98632.28
2023-10-26T21:32:27.877Z,98628.75
2023-10-26T21:34:55.208Z,98599.53
2023-10-26T21:37:22.167Z,98629.06
2023-10-26T21:39:49.326Z,98608.38
2023-10-26T21:42:17.357Z,98616.19
2023-10-26T21:44:44.247Z,98609.06
2023-10-26T21:47:11.235Z,98601.97
2023-10-26T21:49:38.390Z,98600.34
2023-10-26T21:52:05.984Z,98601.25
2023-10-26T21:54:33.146Z,98597.84
2023-10-26T21:57:00.470Z,98604.75
2023-10-26T21:59:27.427Z,98585.88
2023-10-26T22:01:54.658Z,98601.97
2023-10-26T22:04:23.176Z,98585.88
2023-10-26T22:06:51.870Z,98598.94
2023-10-26T22:09:22.153Z,98600.50
2023-10-26T22:11:49.316Z,98609.31
2023-10-26T22:14:16.543Z,98605.81
2023-10-26T22:16:44.220Z,98605.25
2023-10-26T22:19:11.628Z,98623.97
2023-10-26T22:21:39.025Z,98617.00
2023-10-26T22:24:07.868Z,98616.25
2023-10-26T22:26:34.771Z,98618.81
2023-10-26T22:29:01.828Z,98602.41
2023-10-26T22:31:29.529Z,98598.19
2023-10-26T22:33:56.765Z,98594.91
2023-10-26T22:36:23.923Z,98620.13
2023-10-26T22:38:51.140Z,98595.22
2023-10-26T22:41:18.136Z,98616.53
2023-10-26T22:43:45.134Z,98639.09
2023-10-26T22:46:12.145Z,98622.59
2023-10-26T22:48:39.614Z,98634.91
2023-10-26T22:51:06.708Z,98612.50
2023-10-26T22:53:34.094Z,98613.91
2023-10-26T22:56:02.971Z,98637.09
2023-10-26T22:58:30.178Z,98637.22
2023-10-26T23:00:57.403Z,98635.38
2023-10-26T23:03:24.693Z,98615.53
2023-10-26T23:05:57.834Z,98628.37
2023-10-26T23:08:24.842Z,98615.16
2023-10-26T23:10:51.824Z,98603.44
2023-10-26T23:13:19.050Z,98623.97
2023-10-26T23:15:46.602Z,98634.59
2023-10-26T23:18:13.925Z,98620.69
2023-10-26T23:20:41.087Z,98631.03
2023-10-26T23:23:08.643Z,98615.88
2023-10-26T23:25:45.469Z,98621.13
2023-10-26T23:28:13.108Z,98614.25
2023-10-26T23:30:40.509Z,98599.00
2023-10-26T23:33:08.532Z,98617.09
2023-10-26T23:35:39.349Z,98629.13
2023-10-26T23:38:06.280Z,98605.63
2023-10-26T23:40:33.349Z,98633.88
2023-10-26T23:43:01.293Z,98620.25
2023-10-26T23:45:29.316Z,98617.81
2023-10-26T23:47:56.619Z,98604.06
2023-10-26T23:50:23.902Z,98603.63
2023-10-26T23:52:51.265Z,98596.69
2023-10-26T23:55:18.220Z,98589.00
2023-10-26T23:57:45.735Z,98595.72
